Time;durP1;ratioP1;P1;durP2;ratioP2;P2;SDS_P1;SDS_P2;PMS_P1;PMS_P2;Temp;Humidity;BMP_temperature;BMP_pressure;BME280_temperature;BME280_humidity;BME280_pressure;Samples;Min_cycle;Max_cycle;Signal;HPM_P1;HPM_P2
2023/08/12 00:00:19;;;;;;;11.85;5.22;;;25.30;90.00;;;;;;5001753;28;20048;-65
2023/08/12 00:02:45;;;;;;;9.50;5.13;;;25.00;90.00;;;;;;5029123;28;20060;-66
2023/08/12 00:05:11;;;;;;;10.00;5.05;;;25.50;90.00;;;;;;5026155;28;20057;-65
2023/08/12 00:07:37;;;;;;;12.57;5.65;;;25.10;89.80;;;;;;4994681;28;20385;-65
2023/08/12 00:10:04;;;;;;;11.63;5.28;;;25.40;90.00;;;;;;5012075;28;20057;-69
2023/08/12 00:12:33;;;;;;;11.75;5.63;;;25.40;89.90;;;;;;5045603;28;20403;-63
2023/08/12 00:14:58;;;;;;;9.75;5.22;;;25.40;90.10;;;;;;5026059;28;20041;-64
2023/08/12 00:17:24;;;;;;;10.02;5.03;;;25.20;90.00;;;;;;5032178;28;20522;-67
2023/08/12 00:19:50;;;;;;;10.18;4.78;;;25.40;90.00;;;;;;5032367;28;20510;-65
2023/08/12 00:22:16;;;;;;;9.30;4.80;;;25.20;90.00;;;;;;5027427;28;20408;-67
2023/08/12 00:24:42;;;;;;;9.68;5.10;;;25.20;90.00;;;;;;5054771;28;20045;-64
2023/08/12 00:27:08;;;;;;;11.93;5.53;;;25.40;90.10;;;;;;5062481;28;20057;-65
2023/08/12 00:29:35;;;;;;;10.35;5.07;;;25.20;90.10;;;;;;5030922;28;20042;-64
2023/08/12 00:32:01;;;;;;;9.55;4.55;;;25.20;90.10;;;;;;5006267;28;20061;-62
2023/08/12 00:34:26;;;;;;;9.02;4.85;;;25.40;90.30;;;;;;5013838;28;20045;-67
2023/08/12 00:36:52;;;;;;;8.88;4.75;;;25.10;90.00;;;;;;5048889;28;20384;-65
2023/08/12 00:39:18;;;;;;;9.50;4.72;;;25.30;90.00;;;;;;5015044;28;20107;-63
2023/08/12 00:41:44;;;;;;;9.27;4.40;;;25.30;90.00;;;;;;5036010;28;20587;-64
2023/08/12 00:44:09;;;;;;;9.30;4.72;;;25.10;90.00;;;;;;5032021;28;20065;-65
2023/08/12 00:46:36;;;;;;;8.68;4.90;;;25.50;90.10;;;;;;5027647;28;20056;-64
2023/08/12 00:49:02;;;;;;;8.63;4.40;;;25.10;90.10;;;;;;5018197;28;20111;-62
2023/08/12 00:51:28;;;;;;;7.50;4.05;;;25.30;89.70;;;;;;5068061;28;20056;-64
2023/08/12 00:53:54;;;;;;;10.27;4.55;;;25.10;90.00;;;;;;5035089;28;20499;-68
2023/08/12 00:56:20;;;;;;;8.48;4.50;;;25.30;90.00;;;;;;5043728;28;20061;-69
2023/08/12 00:58:45;;;;;;;9.45;4.32;;;25.00;90.00;;;;;;5016911;28;20151;-68
2023/08/12 01:01:11;;;;;;;8.82;4.20;;;25.10;90.00;;;;;;5030169;28;20049;-66
2023/08/12 01:03:37;;;;;;;8.55;4.00;;;25.10;90.00;;;;;;5015772;28;20056;-67
2023/08/12 01:06:03;;;;;;;7.72;3.92;;;25.00;90.00;;;;;;5031404;28;20052;-64
2023/08/12 01:08:30;;;;;;;6.60;3.88;;;25.40;90.10;;;;;;5034631;28;20057;-65
2023/08/12 01:11:13;;;;;;;9.93;4.10;;;25.10;90.20;;;;;;5030997;28;20447;-65
2023/08/12 01:14:06;;;;;;;7.78;3.78;;;25.10;89.20;;;;;;5015084;28;20389;-67
2023/08/12 01:16:35;;;;;;;6.43;3.10;;;25.50;89.70;;;;;;5029065;28;20049;-69
2023/08/12 01:19:00;;;;;;;6.38;3.47;;;25.40;90.20;;;;;;5033436;28;20490;-69
2023/08/12 01:21:26;;;;;;;6.32;3.17;;;25.30;90.10;;;;;;5048460;28;20041;-67
2023/08/12 01:23:52;;;;;;;5.95;3.20;;;25.10;90.00;;;;;;5050276;28;20551;-69
2023/08/12 01:26:17;;;;;;;6.40;3.35;;;25.10;90.10;;;;;;5013959;28;20057;-64
2023/08/12 01:28:43;;;;;;;7.28;3.20;;;25.30;90.10;;;;;;5032807;28;20129;-65
2023/08/12 01:31:31;;;;;;;5.38;2.83;;;25.00;90.00;;;;;;5023178;28;20423;-70
2023/08/12 01:34:16;;;;;;;7.03;3.10;;;25.20;89.00;;;;;;5029350;28;20088;-66
2023/08/12 01:36:42;;;;;;;6.25;3.30;;;25.30;90.30;;;;;;5031662;28;20045;-68
2023/08/12 01:39:08;;;;;;;7.07;3.83;;;25.10;90.10;;;;;;5031696;28;20052;-68
2023/08/12 01:41:34;;;;;;;5.97;2.80;;;25.20;90.20;;;;;;5055572;28;20106;-69
2023/08/12 01:44:00;;;;;;;6.95;3.45;;;25.30;90.10;;;;;;5039079;28;20433;-67
2023/08/12 01:46:25;;;;;;;6.20;2.85;;;25.30;90.10;;;;;;5021268;28;20052;-65
2023/08/12 01:48:51;;;;;;;5.85;2.78;;;25.30;90.20;;;;;;5034069;28;20043;-69
2023/08/12 01:51:17;;;;;;;6.65;3.03;;;25.20;90.10;;;;;;5069630;28;20433;-68
2023/08/12 01:53:42;;;;;;;5.78;3.00;;;25.10;90.10;;;;;;5054862;28;20041;-67
2023/08/12 01:56:08;;;;;;;6.28;2.78;;;25.10;90.10;;;;;;5054788;28;20056;-66
2023/08/12 01:58:34;;;;;;;6.75;3.13;;;25.10;90.10;;;;;;5054863;28;20049;-65
2023/08/12 02:00:59;;;;;;;6.03;3.08;;;25.30;90.40;;;;;;5054300;28;20037;-66
2023/08/12 02:03:25;;;;;;;5.75;2.95;;;25.10;90.10;;;;;;5049282;28;20067;-67
2023/08/12 02:05:51;;;;;;;8.73;3.65;;;25.10;90.10;;;;;;5034948;28;20045;-69
2023/08/12 02:08:17;;;;;;;8.80;3.55;;;25.30;90.20;;;;;;5034326;28;20219;-69
2023/08/12 02:10:43;;;;;;;10.55;4.15;;;25.10;90.10;;;;;;5041253;28;20131;-64
2023/08/12 02:13:08;;;;;;;10.80;4.47;;;25.10;90.00;;;;;;5064341;28;20048;-70
2023/08/12 02:15:34;;;;;;;11.75;4.38;;;25.10;90.10;;;;;;5054190;28;20118;-65
2023/08/12 02:18:00;;;;;;;12.18;4.20;;;25.00;90.10;;;;;;5052047;28;20057;-65
2023/08/12 02:20:25;;;;;;;11.00;4.65;;;25.10;90.10;;;;;;5022777;28;20454;-65
2023/08/12 02:22:51;;;;;;;10.88;5.15;;;25.10;90.20;;;;;;5068909;28;20525;-68
2023/08/12 02:25:17;;;;;;;10.25;4.97;;;24.80;90.10;;;;;;5074311;28;20045;-68
2023/08/12 02:27:43;;;;;;;13.63;5.18;;;25.20;90.10;;;;;;5065945;28;20487;-63
2023/08/12 02:30:10;;;;;;;13.75;4.97;;;24.90;90.10;;;;;;5053903;28;20048;-66
2023/08/12 02:32:36;;;;;;;15.45;6.05;;;25.20;90.10;;;;;;5053404;28;20125;-65
2023/08/12 02:35:01;;;;;;;12.13;5.43;;;24.90;90.10;;;;;;5060848;28;20083;-66
2023/08/12 02:37:27;;;;;;;12.02;5.05;;;25.10;90.20;;;;;;5073616;28;20099;-65
2023/08/12 02:39:53;;;;;;;13.88;5.57;;;25.20;90.20;;;;;;5034665;28;20133;-65
2023/08/12 02:42:19;;;;;;;15.35;5.65;;;24.20;89.90;;;;;;5037415;28;20115;-66
2023/08/12 02:44:44;;;;;;;14.52;5.45;;;24.80;90.00;;;;;;5063980;28;20435;-66
2023/08/12 02:47:10;;;;;;;17.25;6.20;;;25.20;90.20;;;;;;5067862;28;20044;-66
2023/08/12 02:49:36;;;;;;;13.75;5.28;;;25.10;90.20;;;;;;5055230;28;20399;-66
2023/08/12 02:52:02;;;;;;;17.42;5.93;;;25.00;90.20;;;;;;5027491;28;20041;-64
2023/08/12 02:54:28;;;;;;;15.00;5.40;;;25.10;90.20;;;;;;5057676;28;20059;-65
2023/08/12 02:56:54;;;;;;;13.02;5.43;;;24.80;90.10;;;;;;5034751;28;20050;-66
2023/08/12 02:59:19;;;;;;;14.60;5.72;;;24.80;90.10;;;;;;5015887;28;20065;-62
2023/08/12 03:01:45;;;;;;;14.00;5.03;;;25.10;90.20;;;;;;5033325;28;20041;-64
2023/08/12 03:04:11;;;;;;;14.88;5.38;;;25.00;90.20;;;;;;5041434;28;20052;-68
2023/08/12 03:06:36;;;;;;;12.27;5.07;;;24.80;90.10;;;;;;5060143;28;20568;-66
2023/08/12 03:09:02;;;;;;;15.50;5.32;;;24.90;90.10;;;;;;5072938;28;20132;-66
2023/08/12 03:11:28;;;;;;;10.38;4.70;;;25.10;90.10;;;;;;5049192;28;20133;-64
2023/08/12 03:13:54;;;;;;;12.93;4.97;;;25.00;90.10;;;;;;5045512;28;20513;-64
2023/08/12 03:16:19;;;;;;;14.07;5.10;;;24.80;90.10;;;;;;5052922;28;20037;-66
2023/08/12 03:18:45;;;;;;;12.65;5.03;;;25.10;90.30;;;;;;5051083;28;20044;-66
2023/08/12 03:21:11;;;;;;;12.63;5.05;;;24.90;90.10;;;;;;5042765;28;20119;-65
2023/08/12 03:23:37;;;;;;;12.35;4.95;;;24.80;90.20;;;;;;5028381;28;20110;-67
2023/08/12 03:26:03;;;;;;;12.80;5.00;;;25.10;90.30;;;;;;5052791;28;20052;-65
2023/08/12 03:28:29;;;;;;;9.18;4.78;;;25.20;90.30;;;;;;5034813;28;20442;-68
2023/08/12 03:30:55;;;;;;;13.00;5.13;;;25.10;90.30;;;;;;5020241;28;20394;-66
2023/08/12 03:33:21;;;;;;;12.15;5.03;;;25.00;90.20;;;;;;5034437;28;20045;-69
2023/08/12 03:35:47;;;;;;;12.40;5.45;;;25.00;90.20;;;;;;5067645;28;20127;-64
2023/08/12 03:38:13;;;;;;;10.35;4.70;;;25.10;90.30;;;;;;5005518;28;20050;-63
2023/08/12 03:40:39;;;;;;;13.23;4.88;;;24.90;90.20;;;;;;5032881;28;20092;-65
2023/08/12 03:43:05;;;;;;;9.35;4.22;;;25.00;90.20;;;;;;5014506;28;20045;-65
2023/08/12 03:45:31;;;;;;;9.23;4.38;;;24.90;90.20;;;;;;5067555;28;20049;-68
2023/08/12 03:47:57;;;;;;;10.65;5.13;;;25.00;91.70;;;;;;5033791;28;20068;-66
2023/08/12 03:50:22;;;;;;;10.32;4.45;;;24.80;90.20;;;;;;5031060;28;20067;-66
2023/08/12 03:52:48;;;;;;;11.88;4.80;;;24.90;90.20;;;;;;5053024;28;20049;-63
2023/08/12 03:55:14;;;;;;;9.50;4.03;;;25.20;90.30;;;;;;5060357;28;20059;-64
2023/08/12 03:57:39;;;;;;;8.95;4.47;;;24.90;90.20;;;;;;5072680;28;20115;-67
2023/08/12 04:00:08;;;;;;;8.95;4.53;;;25.00;90.20;;;;;;5054565;28;20490;-64
2023/08/12 04:02:34;;;;;;;12.63;4.28;;;24.80;90.00;;;;;;5054879;28;20588;-62
2023/08/12 04:05:00;;;;;;;9.07;4.10;;;25.00;90.30;;;;;;5025450;28;20084;-67
2023/08/12 04:07:26;;;;;;;9.73;4.20;;;24.90;90.20;;;;;;5033479;28;20598;-65
2023/08/12 04:09:52;;;;;;;8.73;4.10;;;24.80;90.20;;;;;;5051867;28;20061;-64
2023/08/12 04:12:18;;;;;;;9.70;3.75;;;24.80;90.40;;;;;;5021500;28;20051;-63
2023/08/12 04:14:44;;;;;;;8.70;4.43;;;24.80;90.20;;;;;;5045286;28;20053;-66
2023/08/12 04:17:09;;;;;;;9.70;4.72;;;24.80;90.20;;;;;;5049032;28;20068;-63
2023/08/12 04:19:35;;;;;;;10.40;4.13;;;25.10;90.30;;;;;;5036349;28;20045;-65
2023/08/12 04:22:01;;;;;;;7.97;3.83;;;25.00;90.30;;;;;;5033871;28;20502;-64
2023/08/12 04:24:26;;;;;;;9.45;4.13;;;24.70;90.20;;;;;;5044290;28;20513;-66
2023/08/12 04:26:52;;;;;;;7.85;3.53;;;25.10;90.30;;;;;;5021620;28;20049;-68
2023/08/12 04:29:18;;;;;;;9.45;4.50;;;25.00;90.30;;;;;;5040216;28;20052;-63
2023/08/12 04:31:44;;;;;;;8.25;3.95;;;25.10;90.40;;;;;;5067659;28;20088;-65
2023/08/12 04:34:10;;;;;;;8.05;3.92;;;24.80;90.30;;;;;;5064271;28;20095;-67
2023/08/12 04:36:35;;;;;;;8.15;3.80;;;25.00;90.30;;;;;;5054046;28;20120;-62
2023/08/12 04:39:01;;;;;;;9.05;3.92;;;24.70;90.20;;;;;;5032459;28;20041;-64
2023/08/12 04:41:27;;;;;;;8.23;3.70;;;24.90;90.20;;;;;;5032054;28;20403;-62
2023/08/12 04:43:53;;;;;;;7.72;3.90;;;24.90;90.30;;;;;;5031979;28;20049;-63
2023/08/12 04:46:19;;;;;;;10.10;4.13;;;25.00;90.30;;;;;;5052904;28;20132;-63
2023/08/12 04:48:45;;;;;;;7.40;3.90;;;25.00;90.30;;;;;;5051739;28;20048;-70
2023/08/12 04:51:11;;;;;;;7.68;3.70;;;25.00;90.30;;;;;;5050373;28;20077;-65
2023/08/12 04:53:37;;;;;;;8.07;4.18;;;25.00;90.30;;;;;;5051275;28;20048;-68
2023/08/12 04:56:03;;;;;;;7.30;3.45;;;24.90;90.20;;;;;;5046016;28;20048;-69
2023/08/12 04:58:28;;;;;;;6.60;3.58;;;24.90;90.10;;;;;;5032841;28;20048;-63
2023/08/12 05:00:54;;;;;;;8.45;3.50;;;24.80;90.20;;;;;;5050504;28;20120;-70
2023/08/12 05:03:20;;;;;;;8.65;3.45;;;25.00;90.30;;;;;;5051650;28;20491;-66
2023/08/12 05:05:50;;;;;;;7.35;3.58;;;24.80;90.20;;;;;;5051518;28;20045;-65
2023/08/12 05:08:16;;;;;;;6.60;3.05;;;25.00;90.50;;;;;;5018717;28;20123;-69
2023/08/12 05:10:42;;;;;;;7.72;3.90;;;24.70;90.10;;;;;;5059439;28;20127;-66
2023/08/12 05:13:08;;;;;;;9.32;3.60;;;24.90;90.20;;;;;;5032038;28;20483;-67
2023/08/12 05:15:36;;;;;;;6.90;3.33;;;25.10;90.30;;;;;;5031773;28;20046;-64
2023/08/12 05:18:02;;;;;;;9.60;3.50;;;25.00;90.30;;;;;;5045597;28;20048;-67
2023/08/12 05:20:28;;;;;;;6.80;3.13;;;25.10;90.30;;;;;;5056693;28;20048;-67
2023/08/12 05:22:54;;;;;;;6.18;3.08;;;25.00;90.20;;;;;;5074766;28;20051;-69
2023/08/12 05:25:19;;;;;;;8.13;3.45;;;24.90;90.20;;;;;;5062852;28;20041;-64
2023/08/12 05:27:45;;;;;;;7.20;3.13;;;25.30;90.30;;;;;;5041792;28;20135;-66
2023/08/12 05:30:11;;;;;;;7.28;3.30;;;24.80;90.20;;;;;;5054523;28;20476;-65
2023/08/12 05:32:37;;;;;;;5.15;2.95;;;24.90;90.10;;;;;;5073748;28;20229;-63
2023/08/12 05:35:03;;;;;;;7.20;2.85;;;25.10;90.30;;;;;;5072058;28;20170;-71
2023/08/12 05:37:29;;;;;;;8.90;3.42;;;24.90;91.80;;;;;;5052712;28;20040;-69
2023/08/12 05:39:55;;;;;;;5.85;2.80;;;24.50;90.10;;;;;;5047035;28;20040;-70
2023/08/12 05:42:21;;;;;;;7.70;3.40;;;25.30;90.40;;;;;;5071468;28;20052;-68
2023/08/12 05:44:46;;;;;;;5.70;2.88;;;24.90;90.30;;;;;;5058356;28;20036;-70
2023/08/12 05:47:12;;;;;;;5.32;2.90;;;25.00;90.30;;;;;;5055645;28;20040;-71
2023/08/12 05:49:38;;;;;;;6.80;2.75;;;25.30;90.40;;;;;;5053157;28;20045;-68
2023/08/12 05:52:04;;;;;;;6.80;2.88;;;25.10;90.40;;;;;;5057884;28;20059;-64
2023/08/12 05:54:30;;;;;;;5.07;2.95;;;25.00;90.30;;;;;;5051911;28;20064;-66
2023/08/12 05:56:55;;;;;;;5.90;2.90;;;25.00;90.40;;;;;;5053840;28;20478;-63
2023/08/12 05:59:21;;;;;;;7.07;3.03;;;25.10;90.40;;;;;;5052836;28;20041;-68
2023/08/12 06:01:47;;;;;;;6.43;3.28;;;25.00;90.30;;;;;;5034738;28;20048;-69
2023/08/12 06:04:13;;;;;;;6.90;3.20;;;25.00;90.30;;;;;;5073623;28;20097;-67
2023/08/12 06:06:40;;;;;;;6.32;2.88;;;25.10;90.20;;;;;;5074286;28;20052;-64
2023/08/12 06:09:05;;;;;;;7.63;3.28;;;25.10;90.30;;;;;;5027142;28;20059;-70
2023/08/12 06:11:32;;;;;;;6.35;3.05;;;25.40;90.30;;;;;;5051317;28;20038;-66
2023/08/12 06:13:57;;;;;;;7.18;2.97;;;25.10;90.40;;;;;;5033946;28;20110;-64
2023/08/12 06:16:23;;;;;;;5.72;3.00;;;25.20;90.40;;;;;;5036010;28;20045;-60
2023/08/12 06:18:49;;;;;;;6.05;2.92;;;25.30;90.30;;;;;;5042197;28;20139;-61
2023/08/12 06:21:15;;;;;;;6.03;3.13;;;25.10;90.30;;;;;;5054651;28;20048;-66
2023/08/12 06:23:41;;;;;;;6.07;3.00;;;25.40;90.50;;;;;;5073616;28;20124;-65
2023/08/12 06:26:06;;;;;;;7.53;3.28;;;25.20;90.30;;;;;;5034737;28;20128;-65
2023/08/12 06:28:32;;;;;;;7.28;3.00;;;25.40;90.40;;;;;;5037609;28;20043;-66
2023/08/12 06:30:58;;;;;;;7.03;3.35;;;25.20;90.40;;;;;;5051060;28;20045;-65
2023/08/12 06:33:24;;;;;;;6.88;3.08;;;25.20;90.40;;;;;;5053677;28;20037;-64
2023/08/12 06:35:50;;;;;;;6.82;3.25;;;25.20;90.20;;;;;;5049849;28;20801;-66
2023/08/12 06:38:16;;;;;;;7.55;3.00;;;25.20;90.40;;;;;;5033502;28;20048;-69
2023/08/12 06:40:42;;;;;;;6.35;3.17;;;25.40;90.30;;;;;;5040129;28;20037;-66
2023/08/12 06:43:09;;;;;;;6.00;3.30;;;25.60;90.30;;;;;;5050430;28;20131;-66
2023/08/12 06:45:35;;;;;;;5.45;3.10;;;25.50;90.40;;;;;;5071085;28;20442;-65
2023/08/12 06:48:02;;;;;;;4.97;2.90;;;25.40;90.30;;;;;;5049272;28;20046;-67
2023/08/12 06:50:27;;;;;;;5.05;2.75;;;25.40;90.30;;;;;;5045917;28;20049;-69
2023/08/12 06:52:53;;;;;;;6.03;3.30;;;25.70;90.30;;;;;;5043514;28;20040;-62
2023/08/12 06:55:19;;;;;;;6.32;3.20;;;25.90;90.40;;;;;;5049478;28;20406;-64
2023/08/12 06:57:45;;;;;;;6.78;2.88;;;25.50;90.20;;;;;;5070479;28;20037;-64
2023/08/12 07:00:11;;;;;;;5.57;2.80;;;25.50;90.30;;;;;;5072439;28;20482;-62
2023/08/12 07:02:37;;;;;;;5.00;2.95;;;25.40;90.20;;;;;;5083208;28;20060;-66
2023/08/12 07:05:03;;;;;;;5.45;3.30;;;25.60;90.40;;;;;;5038522;28;20040;-70
2023/08/12 07:07:29;;;;;;;5.53;2.90;;;25.50;90.20;;;;;;5016607;28;20053;-68
2023/08/12 07:09:54;;;;;;;7.28;2.80;;;25.30;90.20;;;;;;5022134;28;20059;-66
2023/08/12 07:12:20;;;;;;;8.43;3.30;;;25.30;90.20;;;;;;5044632;28;20045;-67
2023/08/12 07:14:46;;;;;;;7.03;3.53;;;25.50;90.30;;;;;;5052577;28;20073;-71
2023/08/12 07:17:12;;;;;;;5.93;3.10;;;25.50;90.30;;;;;;5087040;28;20242;-66
2023/08/12 07:19:38;;;;;;;5.85;3.22;;;25.30;90.30;;;;;;5055087;28;20055;-67
2023/08/12 07:22:03;;;;;;;7.70;3.67;;;25.50;90.30;;;;;;5078623;28;20537;-64
2023/08/12 07:24:29;;;;;;;5.93;3.28;;;25.40;90.40;;;;;;5026233;28;20087;-66
2023/08/12 07:26:55;;;;;;;6.50;3.40;;;25.30;90.30;;;;;;5058606;28;20480;-67
2023/08/12 07:29:21;;;;;;;7.22;3.65;;;25.40;90.40;;;;;;5032736;28;20057;-69
2023/08/12 07:31:47;;;;;;;14.45;8.80;;;25.30;90.40;;;;;;5042207;28;20055;-63
2023/08/12 07:34:13;;;;;;;14.75;11.20;;;25.40;90.50;;;;;;5063475;28;20045;-74
2023/08/12 07:36:40;;;;;;;15.70;11.93;;;25.30;91.20;;;;;;5058927;28;20483;-74
2023/08/12 07:39:06;;;;;;;16.10;11.55;;;25.40;91.90;;;;;;5036316;28;20425;-72
2023/08/12 07:41:32;;;;;;;15.85;12.13;;;25.20;92.30;;;;;;5037488;28;20036;-62
2023/08/12 07:43:58;;;;;;;19.33;13.43;;;25.20;92.70;;;;;;5048022;28;20049;-70
2023/08/12 07:46:24;;;;;;;18.73;12.82;;;25.10;93.00;;;;;;5055692;28;20530;-64
2023/08/12 07:48:49;;;;;;;20.08;13.70;;;24.90;93.30;;;;;;5033178;28;20037;-62
2023/08/12 07:51:15;;;;;;;19.75;14.07;;;25.00;93.60;;;;;;5038585;28;20497;-65
2023/08/12 07:53:41;;;;;;;19.20;14.27;;;24.80;93.80;;;;;;5050574;28;20073;-68
2023/08/12 07:56:07;;;;;;;17.67;13.95;;;24.70;94.10;;;;;;5063151;28;20131;-65
2023/08/12 07:58:32;;;;;;;18.55;14.57;;;24.60;94.30;;;;;;5072240;28;20448;-66
2023/08/12 08:00:58;;;;;;;18.90;14.68;;;24.50;94.50;;;;;;5066979;28;20063;-64
2023/08/12 08:03:25;;;;;;;21.52;14.10;;;24.60;94.80;;;;;;5052262;28;20053;-62
2023/08/12 08:05:51;;;;;;;20.55;14.40;;;24.40;95.00;;;;;;5039584;28;20316;-65
2023/08/12 08:08:18;;;;;;;19.65;15.55;;;24.20;95.10;;;;;;5063646;28;20057;-63
2023/08/12 08:10:44;;;;;;;18.98;15.70;;;24.20;95.40;;;;;;5064434;28;20049;-63
2023/08/12 08:13:10;;;;;;;18.40;14.45;;;24.30;95.50;;;;;;5050764;28;20049;-62
2023/08/12 08:15:35;;;;;;;17.42;14.90;;;24.30;95.70;;;;;;5058947;28;20045;-66
2023/08/12 08:18:03;;;;;;;22.35;14.82;;;24.10;95.80;;;;;;5064967;28;20520;-71
2023/08/12 08:20:30;;;;;;;21.77;15.38;;;24.10;96.10;;;;;;5070870;28;20052;-62
2023/08/12 08:22:55;;;;;;;19.10;14.82;;;24.20;96.30;;;;;;5054988;28;20076;-62
2023/08/12 08:25:21;;;;;;;17.77;14.98;;;24.10;96.30;;;;;;5029374;28;20092;-65
2023/08/12 08:27:47;;;;;;;20.02;14.57;;;24.30;96.50;;;;;;5031744;28;20053;-62
2023/08/12 08:30:13;;;;;;;19.05;15.23;;;24.10;96.50;;;;;;5058921;28;20170;-64
2023/08/12 08:32:39;;;;;;;18.67;15.77;;;24.00;96.60;;;;;;5044103;28;20053;-69
2023/08/12 08:35:05;;;;;;;20.77;14.82;;;24.10;96.80;;;;;;5030259;28;20045;-61
2023/08/12 08:37:31;;;;;;;17.35;14.95;;;24.10;96.90;;;;;;5031072;28;20041;-63
2023/08/12 08:39:57;;;;;;;19.50;16.10;;;23.80;96.90;;;;;;5019131;28;20510;-64
2023/08/12 08:42:22;;;;;;;16.13;14.02;;;24.10;97.20;;;;;;5047198;28;20037;-66
2023/08/12 08:44:50;;;;;;;21.25;15.18;;;24.10;97.20;;;;;;5015008;28;20057;-64
2023/08/12 08:47:16;;;;;;;18.58;15.27;;;24.20;97.40;;;;;;5024633;28;20124;-67
2023/08/12 08:49:42;;;;;;;20.13;15.90;;;24.20;97.50;;;;;;5030893;28;20040;-74
2023/08/12 08:52:08;;;;;;;20.25;16.25;;;24.00;97.40;;;;;;5028228;28;20395;-64
2023/08/12 08:54:34;;;;;;;19.95;16.67;;;24.00;99.40;;;;;;5013815;28;20069;-69
2023/08/12 08:56:59;;;;;;;22.13;15.65;;;24.00;97.60;;;;;;5013323;28;20057;-67
2023/08/12 08:59:25;;;;;;;19.25;16.42;;;23.90;97.60;;;;;;5030777;28;20044;-64
2023/08/12 09:01:51;;;;;;;21.55;16.00;;;24.00;97.70;;;;;;5034356;28;20083;-62
2023/08/12 09:04:17;;;;;;;18.88;15.45;;;23.80;97.60;;;;;;5019009;28;20501;-62
2023/08/12 09:06:43;;;;;;;20.17;16.20;;;23.90;97.60;;;;;;5035403;28;20563;-65
2023/08/12 09:09:10;;;;;;;18.95;15.90;;;24.20;97.90;;;;;;5016835;28;20060;-66
2023/08/12 09:11:38;;;;;;;20.27;16.35;;;23.90;97.90;;;;;;5024442;28;20045;-68
2023/08/12 09:14:04;;;;;;;23.58;16.40;;;24.10;97.80;;;;;;5035527;28;20056;-59
2023/08/12 09:16:30;;;;;;;22.23;15.88;;;24.10;98.00;;;;;;5032826;28;20044;-59
2023/08/12 09:18:56;;;;;;;18.50;16.27;;;23.80;99.90;;;;;;5054455;28;20029;-62
2023/08/12 09:21:21;;;;;;;19.95;16.30;;;23.80;98.00;;;;;;5033294;28;20713;-66
2023/08/12 09:23:47;;;;;;;22.58;16.42;;;23.90;98.30;;;;;;5056614;28;20041;-64
2023/08/12 09:26:20;;;;;;;19.77;17.45;;;24.10;98.30;;;;;;5031680;28;20041;-66
2023/08/12 09:28:46;;;;;;;19.88;15.73;;;24.00;98.70;;;;;;5017060;28;20057;-67
2023/08/12 09:31:26;;;;;;;19.13;16.15;;;24.00;98.60;;;;;;5069101;28;20052;-69
2023/08/12 09:33:52;;;;;;;17.10;15.27;;;23.90;99.20;;;;;;5064226;28;20879;-62
2023/08/12 09:36:18;;;;;;;18.88;15.60;;;24.00;98.80;;;;;;5055956;28;20455;-62
2023/08/12 09:38:44;;;;;;;17.05;14.93;;;23.80;98.80;;;;;;5041676;28;20072;-69
2023/08/12 09:41:10;;;;;;;17.17;14.82;;;23.70;98.80;;;;;;5055069;28;20056;-67
2023/08/12 09:43:43;;;;;;;17.45;15.63;;;23.90;99.90;;;;;;5025827;28;20053;-66
2023/08/12 09:46:15;;;;;;;;;;;23.80;98.40;;;;;;5056282;28;20052;-63
2023/08/12 09:48:40;;;;;;;18.17;15.52;;;24.00;98.80;;;;;;5071012;28;19924;-70
2023/08/12 09:51:07;;;;;;;21.05;15.80;;;24.10;98.80;;;;;;5043094;28;20136;-65
2023/08/12 09:53:33;;;;;;;18.65;15.15;;;23.90;98.90;;;;;;5034184;28;20131;-64
2023/08/12 09:56:07;;;;;;;19.40;16.42;;;23.80;98.90;;;;;;5037318;28;20056;-67
2023/08/12 09:58:33;;;;;;;21.08;15.35;;;24.00;99.90;;;;;;5038855;28;20040;-73
2023/08/12 10:00:59;;;;;;;25.92;16.80;;;23.90;99.10;;;;;;5016349;28;20053;-64
2023/08/12 10:03:25;;;;;;;25.08;16.10;;;23.80;99.90;;;;;;5055017;28;20102;-69
2023/08/12 10:05:51;;;;;;;17.27;15.38;;;23.70;99.30;;;;;;5035245;28;20060;-65
2023/08/12 10:08:16;;;;;;;19.27;15.02;;;23.50;99.40;;;;;;5039042;28;20056;-68
2023/08/12 10:10:43;;;;;;;21.55;14.75;;;23.80;99.90;;;;;;5012256;28;20045;-71
2023/08/12 10:13:10;;;;;;;20.85;15.18;;;23.60;99.60;;;;;;5058769;28;20325;-71
2023/08/12 10:15:36;;;;;;;23.75;15.57;;;23.60;99.60;;;;;;5034587;28;20091;-72
2023/08/12 10:18:03;;;;;;;19.98;13.65;;;23.70;99.60;;;;;;5041025;28;20042;-63
2023/08/12 10:20:28;;;;;;;21.50;13.57;;;23.80;99.40;;;;;;5045180;28;20048;-73
2023/08/12 10:22:54;;;;;;;18.95;13.80;;;23.70;99.30;;;;;;5049072;28;20054;-66
2023/08/12 10:25:23;;;;;;;16.83;13.07;;;23.90;99.40;;;;;;5051482;28;20160;-65
2023/08/12 10:27:49;;;;;;;17.80;13.73;;;23.90;99.00;;;;;;5046717;28;20399;-69
2023/08/12 10:30:15;;;;;;;16.58;12.60;;;23.80;99.30;;;;;;5076815;28;20123;-63
2023/08/12 10:32:41;;;;;;;13.18;10.90;;;24.00;99.40;;;;;;5073243;28;20466;-66
2023/08/12 10:35:08;;;;;;;11.20;9.48;;;23.80;99.30;;;;;;5048175;28;20053;-63
2023/08/12 10:37:34;;;;;;;13.52;9.63;;;24.00;99.20;;;;;;5033420;28;20052;-65
2023/08/12 10:40:07;;;;;;;12.13;9.07;;;24.00;99.20;;;;;;5054038;28;20044;-70
2023/08/12 10:42:46;;;;;;;12.60;7.25;;;23.90;99.30;;;;;;5053015;28;20051;-73
2023/08/12 10:45:16;;;;;;;11.35;7.80;;;23.90;99.50;;;;;;5050630;28;20521;-67
2023/08/12 10:47:51;;;;;;;10.75;7.75;;;24.20;98.60;;;;;;5050387;28;20090;-71
2023/08/12 10:50:19;;;;;;;9.75;7.40;;;23.90;99.20;;;;;;5052904;28;20045;-60
2023/08/12 10:52:45;;;;;;;9.93;7.30;;;23.70;99.90;;;;;;5035265;28;20045;-69
2023/08/12 10:55:24;;;;;;;13.10;7.00;;;23.80;99.10;;;;;;5032831;28;20497;-61
2023/08/12 10:57:54;;;;;;;8.98;6.15;;;24.20;99.50;;;;;;5034616;28;20056;-70
2023/08/12 11:00:27;;;;;;;8.40;5.20;;;24.20;98.60;;;;;;5018990;28;20052;-61
2023/08/12 11:02:56;;;;;;;6.57;4.43;;;23.90;98.50;;;;;;5019479;28;20052;-60
2023/08/12 11:05:23;;;;;;;8.35;4.65;;;24.30;99.20;;;;;;5074257;28;20486;-68
2023/08/12 11:07:55;;;;;;;6.47;4.00;;;24.00;99.90;;;;;;5034548;28;20048;-73
2023/08/12 11:10:26;;;;;;;6.68;4.05;;;24.30;98.40;;;;;;5034381;28;20144;-71
2023/08/12 11:12:51;;;;;;;7.22;4.68;;;24.10;99.00;;;;;;5022740;28;20053;-74
2023/08/12 11:15:18;;;;;;;7.28;4.75;;;23.90;98.70;;;;;;5032862;28;20156;-73
2023/08/12 11:17:45;;;;;;;7.72;4.45;;;24.20;99.00;;;;;;5025818;28;20080;-73
2023/08/12 11:20:12;;;;;;;6.97;4.40;;;24.10;99.00;;;;;;5033833;28;20041;-72
2023/08/12 11:22:39;;;;;;;6.65;4.32;;;24.10;98.90;;;;;;5034936;28;20052;-70
2023/08/12 11:25:11;;;;;;;6.25;4.55;;;23.80;98.90;;;;;;5031105;28;20053;-74
2023/08/12 11:27:43;;;;;;;;;;;24.10;98.40;;;;;;5033460;28;20107;-70
2023/08/12 11:30:12;;;;;;;15.50;4.93;;;24.10;98.70;;;;;;5021738;28;19921;-62
2023/08/12 11:32:39;;;;;;;9.88;4.25;;;24.20;98.90;;;;;;5022402;28;20131;-62
2023/08/12 11:35:06;;;;;;;8.00;4.20;;;24.30;98.90;;;;;;5033802;28;20133;-60
2023/08/12 11:37:32;;;;;;;10.27;4.35;;;24.20;98.70;;;;;;5014810;28;20045;-60
2023/08/12 11:39:58;;;;;;;6.75;4.13;;;24.10;98.80;;;;;;5032535;28;20116;-61
2023/08/12 11:42:24;;;;;;;6.88;3.55;;;24.10;98.60;;;;;;5027094;28;20140;-60
2023/08/12 11:44:49;;;;;;;6.15;3.92;;;24.30;98.70;;;;;;5053759;28;20075;-75
2023/08/12 11:47:15;;;;;;;6.68;3.85;;;24.30;98.60;;;;;;5031285;28;20101;-74
2023/08/12 11:49:41;;;;;;;7.70;3.75;;;24.40;98.60;;;;;;5087840;28;20055;-67
2023/08/12 11:52:09;;;;;;;7.03;3.58;;;24.40;98.60;;;;;;5069035;28;20056;-74
2023/08/12 11:54:35;;;;;;;5.35;3.45;;;24.20;98.50;;;;;;5048019;28;20056;-74
2023/08/12 11:57:01;;;;;;;6.18;3.60;;;24.50;98.30;;;;;;5025946;28;20040;-73
2023/08/12 11:59:27;;;;;;;6.57;3.30;;;24.40;98.30;;;;;;5041002;28;20123;-73
2023/08/12 12:01:54;;;;;;;6.38;3.78;;;24.40;98.20;;;;;;5032398;28;20819;-74
2023/08/12 12:04:20;;;;;;;5.05;3.30;;;24.30;98.20;;;;;;5052204;28;20036;-73
2023/08/12 12:06:47;;;;;;;4.90;3.00;;;24.30;98.10;;;;;;5037733;28;20052;-73
2023/08/12 12:09:13;;;;;;;6.43;3.10;;;24.40;98.00;;;;;;5069475;28;20055;-75
2023/08/12 12:11:41;;;;;;;5.63;2.88;;;24.30;97.90;;;;;;5049997;28;20057;-69
2023/08/12 12:14:08;;;;;;;5.28;3.10;;;24.50;97.90;;;;;;5016033;28;20056;-76
2023/08/12 12:16:46;;;;;;;5.88;3.20;;;24.80;97.90;;;;;;5056398;28;20472;-77
2023/08/12 12:19:23;;;;;;;4.88;3.00;;;24.80;98.30;;;;;;5060438;28;20040;-76
2023/08/12 12:21:50;;;;;;;5.40;2.70;;;24.70;97.60;;;;;;5071926;28;20506;-76
2023/08/12 12:24:17;;;;;;;4.50;3.00;;;24.40;98.00;;;;;;5063041;28;20045;-74
2023/08/12 12:26:43;;;;;;;4.47;2.58;;;24.70;98.20;;;;;;5049659;28;20102;-76
2023/08/12 12:29:11;;;;;;;5.38;3.30;;;24.70;98.10;;;;;;5071904;28;20486;-77
2023/08/12 12:31:40;;;;;;;5.07;2.63;;;24.60;98.10;;;;;;5041431;28;20127;-62
2023/08/12 12:34:07;;;;;;;4.03;2.15;;;24.50;98.10;;;;;;5055766;28;20301;-61
2023/08/12 12:36:35;;;;;;;4.65;2.00;;;24.60;98.20;;;;;;5049389;28;20055;-60